createdAt,value
2018-06-27T00:01:05.062Z,66.80
2018-06-27T00:03:32.232Z,66.80
2018-06-27T00:05:59.409Z,66.80
2018-06-27T00:08:26.577Z,67.00
2018-06-27T00:10:53.765Z,67.10
2018-06-27T00:13:20.969Z,67.40
2018-06-27T00:15:48.181Z,67.20
2018-06-27T00:18:15.388Z,67.50
2018-06-27T00:20:42.586Z,67.40
2018-06-27T00:23:09.753Z,67.40
2018-06-27T00:25:36.929Z,67.50
2018-06-27T00:28:04.250Z,67.50
2018-06-27T00:30:31.430Z,67.60
2018-06-27T00:32:58.602Z,67.60
2018-06-27T00:35:25.796Z,67.40
2018-06-27T00:37:52.989Z,67.30
2018-06-27T00:40:20.169Z,67.50
2018-06-27T00:42:47.340Z,67.40
2018-06-27T00:45:14.493Z,67.20
2018-06-27T00:47:48.510Z,67.40
2018-06-27T00:50:15.682Z,67.50
2018-06-27T00:55:16.753Z,67.80
2018-06-27T00:57:43.929Z,67.90
2018-06-27T01:00:11.102Z,67.70
2018-06-27T01:02:38.283Z,67.80
2018-06-27T01:05:05.610Z,67.90
2018-06-27T01:07:32.827Z,68.00
2018-06-27T01:09:59.980Z,68.20
2018-06-27T01:12:27.153Z,68.30
2018-06-27T01:14:54.337Z,68.40
2018-06-27T01:17:21.567Z,68.40
2018-06-27T01:19:48.743Z,68.60
2018-06-27T01:22:15.941Z,68.60
2018-06-27T01:24:43.124Z,68.60
2018-06-27T01:27:10.304Z,68.60
2018-06-27T01:29:37.474Z,68.60
2018-06-27T01:32:04.725Z,68.60
2018-06-27T01:34:31.904Z,68.60
2018-06-27T01:36:59.093Z,68.60
2018-06-27T01:39:26.256Z,68.80
2018-06-27T01:41:53.476Z,69.00
2018-06-27T01:44:20.644Z,69.00
2018-06-27T01:46:47.826Z,69.10
2018-06-27T01:49:14.992Z,69.40
2018-06-27T01:51:42.221Z,69.30
2018-06-27T01:54:09.408Z,69.60
2018-06-27T01:56:36.572Z,69.80
2018-06-27T01:59:03.786Z,70.00
2018-06-27T02:01:30.968Z,69.70
2018-06-27T02:03:58.155Z,69.70
2018-06-27T02:06:25.350Z,70.10
2018-06-27T02:08:52.547Z,69.70
2018-06-27T02:11:19.733Z,70.20
2018-06-27T02:13:46.940Z,70.40
2018-06-27T02:16:14.118Z,70.50
2018-06-27T02:18:41.304Z,70.60
2018-06-27T02:21:08.485Z,70.40
2018-06-27T02:23:35.666Z,70.70
2018-06-27T02:28:36.745Z,70.50
2018-06-27T02:31:04.037Z,70.70
2018-06-27T02:33:31.217Z,70.90
2018-06-27T02:36:05.229Z,70.80
2018-06-27T02:38:32.490Z,70.70
2018-06-27T02:40:59.675Z,71.00
2018-06-27T02:43:26.857Z,71.10
2018-06-27T02:45:54.120Z,71.20
2018-06-27T02:48:21.378Z,71.10
2018-06-27T02:50:48.561Z,71.40
2018-06-27T02:53:15.729Z,71.60
2018-06-27T02:55:42.942Z,72.00
2018-06-27T02:58:10.180Z,71.30
2018-06-27T03:00:37.386Z,71.40
2018-06-27T03:03:04.803Z,71.50
2018-06-27T03:05:31.978Z,71.90
2018-06-27T03:07:59.142Z,71.90
2018-06-27T03:10:26.322Z,72.00
2018-06-27T03:12:53.485Z,72.10
2018-06-27T03:15:20.674Z,72.20
2018-06-27T03:17:47.909Z,72.40
2018-06-27T03:20:15.354Z,72.50
2018-06-27T03:25:10.090Z,72.90
2018-06-27T03:27:37.396Z,73.00
2018-06-27T03:30:04.838Z,73.00
2018-06-27T03:32:32.014Z,73.00
2018-06-27T03:34:59.196Z,73.00
2018-06-27T03:37:26.488Z,72.60
2018-06-27T03:39:53.680Z,72.50
2018-06-27T03:42:20.860Z,72.20
2018-06-27T03:44:48.262Z,71.50
2018-06-27T03:47:15.485Z,71.10
2018-06-27T03:49:42.757Z,71.00
2018-06-27T03:52:09.968Z,70.50
2018-06-27T03:54:37.192Z,70.60
2018-06-27T03:57:04.375Z,70.80
2018-06-27T03:59:31.557Z,71.50
2018-06-27T04:01:58.723Z,70.80
2018-06-27T04:04:25.903Z,71.20
2018-06-27T04:06:53.054Z,71.00
2018-06-27T04:09:20.232Z,71.40
2018-06-27T04:11:47.412Z,71.50
2018-06-27T04:14:14.571Z,71.10
2018-06-27T04:16:41.759Z,71.00
2018-06-27T04:19:08.931Z,71.30
2018-06-27T04:21:36.105Z,71.50
2018-06-27T04:24:03.304Z,71.10
2018-06-27T04:26:30.471Z,70.80
2018-06-27T04:28:57.651Z,71.10
2018-06-27T04:31:24.820Z,71.10
2018-06-27T04:33:52.001Z,71.00
2018-06-27T04:36:19.169Z,71.10
2018-06-27T04:38:46.323Z,71.30
2018-06-27T04:41:13.503Z,71.10
2018-06-27T04:43:40.655Z,71.30
2018-06-27T04:46:07.832Z,71.20
2018-06-27T04:48:34.987Z,71.60
2018-06-27T04:51:02.161Z,71.90
2018-06-27T04:53:29.308Z,72.60
2018-06-27T04:55:56.468Z,72.30
2018-06-27T04:58:23.656Z,72.80
2018-06-27T05:00:50.839Z,72.60
2018-06-27T05:03:17.995Z,72.30
2018-06-27T05:08:12.339Z,72.60
2018-06-27T05:10:39.500Z,72.30
2018-06-27T05:13:06.690Z,72.60
2018-06-27T05:15:33.857Z,72.60
2018-06-27T05:18:01.028Z,72.70
2018-06-27T05:20:28.208Z,72.70
2018-06-27T05:22:55.367Z,72.20
2018-06-27T05:25:22.550Z,72.20
2018-06-27T05:27:49.694Z,71.60
2018-06-27T05:30:16.879Z,71.40
2018-06-27T05:32:44.044Z,71.60
2018-06-27T05:35:11.206Z,71.60
2018-06-27T05:37:38.390Z,71.10
2018-06-27T05:40:05.612Z,71.40
2018-06-27T05:42:32.797Z,71.50
2018-06-27T05:44:59.948Z,71.20
2018-06-27T05:47:27.129Z,71.20
2018-06-27T05:49:54.284Z,71.30
2018-06-27T05:52:21.441Z,70.90
2018-06-27T05:54:53.255Z,71.10
2018-06-27T05:57:20.503Z,70.70
2018-06-27T05:59:47.824Z,70.90
2018-06-27T06:02:15.005Z,71.80
2018-06-27T06:04:42.203Z,71.30
2018-06-27T06:07:09.724Z,71.00
2018-06-27T06:09:36.948Z,70.70
2018-06-27T06:12:04.119Z,70.80
2018-06-27T06:14:31.289Z,71.10
2018-06-27T06:16:58.568Z,70.90
2018-06-27T06:19:25.723Z,71.10
2018-06-27T06:24:20.179Z,70.10
2018-06-27T06:26:47.335Z,69.90
2018-06-27T06:29:14.488Z,70.00
2018-06-27T06:31:41.738Z,69.30
2018-06-27T06:34:08.899Z,69.60
2018-06-27T06:36:36.217Z,69.90
2018-06-27T06:39:06.048Z,69.30
2018-06-27T06:41:33.219Z,68.30
2018-06-27T06:44:00.564Z,68.20
2018-06-27T06:46:27.735Z,68.60
2018-06-27T06:48:55.676Z,67.90
2018-06-27T06:51:22.831Z,68.20
2018-06-27T06:53:50.032Z,68.30
2018-06-27T06:56:17.224Z,68.20
2018-06-27T06:58:44.519Z,69.00
2018-06-27T07:01:11.655Z,68.30
2018-06-27T07:03:38.895Z,68.60
2018-06-27T07:06:12.758Z,69.60
2018-06-27T07:08:39.919Z,68.70
2018-06-27T07:11:07.178Z,67.40
2018-06-27T07:13:34.338Z,67.70
2018-06-27T07:16:01.501Z,67.80
2018-06-27T07:18:29.157Z,67.70
2018-06-27T07:20:56.332Z,65.70
2018-06-27T07:23:23.555Z,64.60
2018-06-27T07:25:50.729Z,63.80
2018-06-27T07:28:17.907Z,63.90
2018-06-27T07:30:45.076Z,64.10
2018-06-27T07:33:12.256Z,63.50
2018-06-27T07:35:39.683Z,62.10
2018-06-27T07:38:06.863Z,59.60
2018-06-27T07:40:34.055Z,57.80
2018-06-27T07:43:01.219Z,56.90
2018-06-27T07:45:28.371Z,55.90
2018-06-27T07:50:22.723Z,54.20
2018-06-27T07:52:49.893Z,52.00
2018-06-27T07:55:17.126Z,50.50
2018-06-27T07:57:44.236Z,50.50
2018-06-27T08:00:11.420Z,48.20
2018-06-27T08:02:38.641Z,48.70
2018-06-27T08:05:05.820Z,48.80
2018-06-27T08:07:33.055Z,48.70
2018-06-27T08:10:00.216Z,48.90
2018-06-27T08:12:27.454Z,49.00
2018-06-27T08:14:54.527Z,48.90
2018-06-27T08:17:21.725Z,48.90
2018-06-27T08:19:48.891Z,48.70
2018-06-27T08:22:16.064Z,48.60
2018-06-27T08:24:43.328Z,47.40
2018-06-27T08:27:10.670Z,48.90
2018-06-27T08:29:37.824Z,49.90
2018-06-27T08:32:05.091Z,49.80
2018-06-27T08:34:32.272Z,48.30
2018-06-27T08:36:59.411Z,48.10
2018-06-27T08:39:26.600Z,46.50
2018-06-27T08:41:53.739Z,47.00
2018-06-27T08:44:20.973Z,47.00
2018-06-27T08:46:48.077Z,46.80
2018-06-27T08:49:15.232Z,45.60
2018-06-27T08:51:42.416Z,47.20
2018-06-27T08:54:09.567Z,47.70
2018-06-27T08:56:36.725Z,45.20
2018-06-27T08:59:03.908Z,46.40
2018-06-27T09:01:31.105Z,47.10
2018-06-27T09:03:58.289Z,45.70
2018-06-27T09:06:25.472Z,46.00
2018-06-27T09:08:52.648Z,44.90
2018-06-27T09:11:19.923Z,43.90
2018-06-27T09:13:47.079Z,44.10
2018-06-27T09:16:14.224Z,43.60
2018-06-27T09:18:41.462Z,43.60
2018-06-27T09:21:08.579Z,43.00
2018-06-27T09:23:35.751Z,41.40
2018-06-27T09:26:02.928Z,40.60
2018-06-27T09:30:57.275Z,40.40
2018-06-27T09:33:24.457Z,39.00
2018-06-27T09:35:51.612Z,37.60
2018-06-27T09:38:18.786Z,38.80
2018-06-27T09:40:45.955Z,38.70
2018-06-27T09:43:13.129Z,37.60
2018-06-27T09:45:40.305Z,36.90
2018-06-27T09:48:07.498Z,36.40
2018-06-27T09:50:34.719Z,36.20
2018-06-27T09:53:01.893Z,36.20
2018-06-27T09:55:29.075Z,35.40
2018-06-27T09:57:56.225Z,33.80
2018-06-27T10:00:29.127Z,33.70
2018-06-27T10:02:56.336Z,32.70
2018-06-27T10:05:23.531Z,31.40
2018-06-27T10:07:50.690Z,31.90
2018-06-27T10:10:18.061Z,32.50
2018-06-27T10:12:45.227Z,32.30
2018-06-27T10:15:12.418Z,32.00
2018-06-27T10:17:39.569Z,31.60
2018-06-27T10:20:06.819Z,31.50
2018-06-27T10:22:33.992Z,31.80
2018-06-27T10:25:01.148Z,31.10
2018-06-27T10:27:28.299Z,31.80
2018-06-27T10:29:55.488Z,30.40
2018-06-27T10:32:22.660Z,30.80
2018-06-27T10:34:49.926Z,31.20
2018-06-27T10:37:17.021Z,31.50
2018-06-27T10:39:44.212Z,30.80
2018-06-27T10:42:11.383Z,31.00
2018-06-27T10:44:38.544Z,31.10
2018-06-27T10:47:05.727Z,31.40
2018-06-27T10:49:32.879Z,31.60
2018-06-27T10:52:00.046Z,30.50
2018-06-27T10:56:54.535Z,31.30
2018-06-27T10:59:21.687Z,31.70
2018-06-27T11:01:48.969Z,32.60
2018-06-27T11:04:16.124Z,33.40
2018-06-27T11:06:43.495Z,36.90
2018-06-27T11:09:10.683Z,38.30
2018-06-27T11:11:37.867Z,37.60
2018-06-27T11:14:05.106Z,37.20
2018-06-27T11:16:32.199Z,39.00
2018-06-27T11:18:59.360Z,40.40
2018-06-27T11:21:26.527Z,40.40
2018-06-27T11:23:53.672Z,40.80
2018-06-27T11:26:20.839Z,39.50
2018-06-27T11:28:48.011Z,38.10
2018-06-27T11:31:15.203Z,35.60
2018-06-27T11:33:42.343Z,34.10
2018-06-27T11:36:09.524Z,31.80
2018-06-27T11:38:36.720Z,31.80
2018-06-27T11:41:03.843Z,31.80
2018-06-27T11:43:31.032Z,30.20
2018-06-27T11:45:58.201Z,30.60
2018-06-27T11:48:25.615Z,29.20
2018-06-27T11:50:52.799Z,29.50
2018-06-27T11:53:19.982Z,28.80
2018-06-27T11:55:47.142Z,29.70
2018-06-27T11:58:14.335Z,29.40
2018-06-27T12:00:41.500Z,28.60
2018-06-27T12:03:08.676Z,29.40
2018-06-27T12:05:35.822Z,29.90
2018-06-27T12:08:03.003Z,29.60
2018-06-27T12:10:30.309Z,29.70
2018-06-27T12:12:57.579Z,30.40
2018-06-27T12:15:24.776Z,29.70
2018-06-27T12:20:19.147Z,29.20
2018-06-27T12:22:46.349Z,29.20
2018-06-27T12:25:13.535Z,29.00
2018-06-27T12:27:40.720Z,28.80
2018-06-27T12:30:15.431Z,28.90
2018-06-27T12:32:42.602Z,29.40
2018-06-27T12:35:09.773Z,28.50
2018-06-27T12:37:36.951Z,27.50
2018-06-27T12:40:04.179Z,27.40
2018-06-27T12:42:31.383Z,27.40
2018-06-27T12:44:58.522Z,27.40
2018-06-27T12:47:25.667Z,27.40
2018-06-27T12:49:52.892Z,26.00
2018-06-27T12:52:20.011Z,26.50
2018-06-27T12:54:47.311Z,26.80
2018-06-27T12:57:14.455Z,25.90
2018-06-27T12:59:41.718Z,26.50
2018-06-27T13:02:08.807Z,26.00
2018-06-27T13:04:36.072Z,26.70
2018-06-27T13:07:03.325Z,26.50
2018-06-27T13:09:30.528Z,25.60
2018-06-27T13:11:57.675Z,25.90
2018-06-27T13:14:24.885Z,27.20
2018-06-27T13:16:52.077Z,26.90
2018-06-27T13:19:19.265Z,27.30
2018-06-27T13:21:46.443Z,27.00
2018-06-27T13:24:13.607Z,27.40
2018-06-27T13:26:40.767Z,29.10
2018-06-27T13:31:35.114Z,27.70
2018-06-27T13:34:02.299Z,29.10
2018-06-27T13:36:29.483Z,29.40
2018-06-27T13:38:56.680Z,30.30
2018-06-27T13:41:23.880Z,30.60
2018-06-27T13:43:51.108Z,31.20
2018-06-27T13:46:18.303Z,30.20
2018-06-27T13:48:45.447Z,31.10
2018-06-27T13:51:12.620Z,30.00
2018-06-27T13:53:39.829Z,30.60
2018-06-27T13:56:07.020Z,32.80
2018-06-27T13:58:34.198Z,30.60
2018-06-27T14:01:01.376Z,32.70
2018-06-27T14:03:28.555Z,30.40
2018-06-27T14:06:02.713Z,29.40
2018-06-27T14:08:29.905Z,30.10
2018-06-27T14:10:57.071Z,30.30
2018-06-27T14:13:24.281Z,30.60
2018-06-27T14:15:51.543Z,30.60
2018-06-27T14:18:18.770Z,30.80
2018-06-27T14:20:45.936Z,30.50
2018-06-27T14:23:13.102Z,30.60
2018-06-27T14:25:40.268Z,30.70
2018-06-27T14:28:07.448Z,31.30
2018-06-27T14:30:34.633Z,30.90
2018-06-27T14:33:01.968Z,31.90
2018-06-27T14:35:29.078Z,32.30
2018-06-27T14:37:56.243Z,33.10
2018-06-27T14:40:23.433Z,32.80
2018-06-27T14:42:50.603Z,32.70
2018-06-27T14:45:17.766Z,33.50
2018-06-27T14:47:44.965Z,32.50
2018-06-27T14:50:12.156Z,32.20
2018-06-27T14:52:39.336Z,33.30
2018-06-27T14:55:08.224Z,33.10
2018-06-27T14:57:35.920Z,32.40
2018-06-27T15:00:04.601Z,32.70
2018-06-27T15:02:31.781Z,32.90
2018-06-27T15:04:58.967Z,33.10
2018-06-27T15:07:26.147Z,33.20
2018-06-27T15:09:53.308Z,32.40
2018-06-27T15:12:20.483Z,33.20
2018-06-27T15:14:47.643Z,33.00
2018-06-27T15:17:14.808Z,33.30
2018-06-27T15:19:41.996Z,32.70
2018-06-27T15:22:09.173Z,33.00
2018-06-27T15:24:36.407Z,32.40
2018-06-27T15:27:03.667Z,32.50
2018-06-27T15:29:30.811Z,32.50
2018-06-27T15:31:58.011Z,33.70
2018-06-27T15:34:25.198Z,33.70
2018-06-27T15:36:52.366Z,32.50
2018-06-27T15:39:19.545Z,32.50
2018-06-27T15:41:46.772Z,32.40
2018-06-27T15:44:13.965Z,32.90
2018-06-27T15:46:41.128Z,32.60
2018-06-27T15:49:09.225Z,33.20
2018-06-27T15:51:36.689Z,32.90
2018-06-27T15:54:03.879Z,33.40
2018-06-27T15:56:31.036Z,34.30
2018-06-27T15:58:58.229Z,33.50
2018-06-27T16:01:25.411Z,32.90
2018-06-27T16:03:52.639Z,33.20
2018-06-27T16:06:20.023Z,33.30
2018-06-27T16:08:47.215Z,34.90
2018-06-27T16:11:14.439Z,33.90
2018-06-27T16:13:41.584Z,34.10
2018-06-27T16:16:08.759Z,35.20
2018-06-27T16:18:35.900Z,34.00
2018-06-27T16:21:03.091Z,34.10
2018-06-27T16:23:30.247Z,35.00
2018-06-27T16:28:24.595Z,35.40
2018-06-27T16:30:51.779Z,35.80
2018-06-27T16:33:18.956Z,36.20
2018-06-27T16:35:46.124Z,36.40
2018-06-27T16:38:13.338Z,36.80
2018-06-27T16:40:40.589Z,36.90
2018-06-27T16:43:07.865Z,37.20
2018-06-27T16:45:34.935Z,39.10
2018-06-27T16:48:02.129Z,38.70
2018-06-27T16:50:29.316Z,38.80
2018-06-27T16:52:56.521Z,38.50
2018-06-27T16:55:23.691Z,38.90
2018-06-27T16:57:50.984Z,38.40
2018-06-27T17:00:18.179Z,38.40
2018-06-27T17:02:45.344Z,37.50
2018-06-27T17:05:12.577Z,37.20
2018-06-27T17:07:39.739Z,36.80
2018-06-27T17:10:06.909Z,36.90
2018-06-27T17:12:40.985Z,37.20
2018-06-27T17:15:08.168Z,36.50
2018-06-27T17:17:35.349Z,37.00
2018-06-27T17:20:02.560Z,36.90
2018-06-27T17:22:29.738Z,36.00
2018-06-27T17:24:56.895Z,36.60
2018-06-27T17:27:24.111Z,36.90
2018-06-27T17:29:51.268Z,35.40
2018-06-27T17:32:18.472Z,36.30
2018-06-27T17:34:45.635Z,34.80
2018-06-27T17:37:12.843Z,37.10
2018-06-27T17:39:40.039Z,35.50
2018-06-27T17:42:07.236Z,36.70
2018-06-27T17:44:34.467Z,35.70
2018-06-27T17:47:01.682Z,36.60
2018-06-27T17:49:28.872Z,36.70
2018-06-27T17:51:56.077Z,37.50
2018-06-27T17:54:23.229Z,36.70
2018-06-27T17:56:50.439Z,36.30
2018-06-27T17:59:17.699Z,36.60
2018-06-27T18:01:44.905Z,37.40
2018-06-27T18:04:12.106Z,38.10
2018-06-27T18:06:39.272Z,38.90
2018-06-27T18:09:07.995Z,38.60
2018-06-27T18:11:35.176Z,38.30
2018-06-27T18:14:02.920Z,38.10
2018-06-27T18:16:30.071Z,37.40
2018-06-27T18:18:57.248Z,37.90
2018-06-27T18:21:24.555Z,38.20
2018-06-27T18:23:51.807Z,37.30
2018-06-27T18:26:19.031Z,38.30
2018-06-27T18:28:46.191Z,38.30
2018-06-27T18:31:13.359Z,38.50
2018-06-27T18:33:40.571Z,39.30
2018-06-27T18:36:07.735Z,38.90
2018-06-27T18:38:34.927Z,38.80
2018-06-27T18:41:02.116Z,39.90
2018-06-27T18:43:29.317Z,38.90
2018-06-27T18:45:56.487Z,40.00
2018-06-27T18:48:23.697Z,40.70
2018-06-27T18:50:50.861Z,40.40
2018-06-27T18:53:18.011Z,39.50
2018-06-27T18:55:45.183Z,39.50
2018-06-27T18:58:12.347Z,40.00
2018-06-27T19:00:39.532Z,40.40
2018-06-27T19:03:06.731Z,41.30
2018-06-27T19:05:33.924Z,41.20
2018-06-27T19:08:01.092Z,41.30
2018-06-27T19:10:28.294Z,41.30
2018-06-27T19:12:55.464Z,41.70
2018-06-27T19:15:22.634Z,42.10
2018-06-27T19:17:49.890Z,41.90
2018-06-27T19:20:17.201Z,41.60
2018-06-27T19:22:44.432Z,41.90
2018-06-27T19:25:11.625Z,42.10
2018-06-27T19:27:38.807Z,42.10
2018-06-27T19:30:06.327Z,42.80
2018-06-27T19:35:00.895Z,42.80
2018-06-27T19:37:28.076Z,43.20
2018-06-27T19:39:55.247Z,43.10
2018-06-27T19:42:22.544Z,43.30
2018-06-27T19:44:49.706Z,43.20
2018-06-27T19:49:44.103Z,43.50
2018-06-27T19:52:11.299Z,43.10
2018-06-27T19:54:38.465Z,43.10
2018-06-27T19:57:05.671Z,43.30
2018-06-27T19:59:32.875Z,43.20
2018-06-27T20:02:00.097Z,43.70
2018-06-27T20:04:27.219Z,43.60
2018-06-27T20:06:54.442Z,43.40
2018-06-27T20:09:21.552Z,44.40
2018-06-27T20:11:48.729Z,44.30
2018-06-27T20:14:15.919Z,44.30
2018-06-27T20:16:43.079Z,44.70
2018-06-27T20:19:10.488Z,44.40
2018-06-27T20:21:37.699Z,44.70
2018-06-27T20:24:04.892Z,44.50
2018-06-27T20:26:32.081Z,44.70
2018-06-27T20:31:33.292Z,44.70
2018-06-27T20:34:00.517Z,44.80
2018-06-27T20:41:28.780Z,45.50
2018-06-27T20:43:55.961Z,45.40
2018-06-27T20:46:23.141Z,45.70
2018-06-27T20:48:50.306Z,45.60
2018-06-27T20:51:17.488Z,45.80
2018-06-27T20:53:44.831Z,45.50
2018-06-27T20:56:11.996Z,45.20
2018-06-27T20:58:39.172Z,45.40
2018-06-27T21:01:06.331Z,45.60
2018-06-27T21:03:33.516Z,45.90
2018-06-27T21:06:00.716Z,46.30
2018-06-27T21:08:27.871Z,46.60
2018-06-27T21:10:55.030Z,46.40
2018-06-27T21:13:22.208Z,46.30
2018-06-27T21:15:49.375Z,46.60
2018-06-27T21:18:16.553Z,46.30
2018-06-27T21:20:43.769Z,46.80
2018-06-27T21:23:10.943Z,46.80
2018-06-27T21:25:38.105Z,46.70
2018-06-27T21:28:05.303Z,46.70
2018-06-27T21:30:32.476Z,47.30
2018-06-27T21:32:59.639Z,47.30
2018-06-27T21:35:26.829Z,47.60
2018-06-27T21:37:53.987Z,47.10
2018-06-27T21:40:21.139Z,46.90
2018-06-27T21:42:48.379Z,47.30
2018-06-27T21:45:15.584Z,47.30
2018-06-27T21:47:42.765Z,46.80
2018-06-27T21:50:10.068Z,47.00
2018-06-27T21:52:37.295Z,46.90
2018-06-27T21:55:05.196Z,47.00
2018-06-27T21:57:32.343Z,47.30
2018-06-27T21:59:59.500Z,47.80
2018-06-27T22:02:26.665Z,47.80
2018-06-27T22:04:53.818Z,47.80
2018-06-27T22:07:20.992Z,47.80
2018-06-27T22:09:48.164Z,47.90
2018-06-27T22:12:15.327Z,47.80
2018-06-27T22:14:42.510Z,47.70
2018-06-27T22:17:09.705Z,47.20
2018-06-27T22:19:36.893Z,47.30
2018-06-27T22:22:04.072Z,47.20
2018-06-27T22:24:31.267Z,47.20
2018-06-27T22:26:58.612Z,47.60
2018-06-27T22:29:25.774Z,47.80
2018-06-27T22:31:52.999Z,48.00
2018-06-27T22:34:20.152Z,48.10
2018-06-27T22:36:47.351Z,48.10
2018-06-27T22:39:14.525Z,48.40
2018-06-27T22:41:41.716Z,48.60
2018-06-27T22:44:08.917Z,49.10
2018-06-27T22:46:36.530Z,49.50
2018-06-27T22:49:03.899Z,49.40
2018-06-27T22:51:31.107Z,50.20
2018-06-27T22:53:58.304Z,50.50
2018-06-27T22:56:25.459Z,50.50
2018-06-27T22:58:52.633Z,51.00
2018-06-27T23:01:19.811Z,51.40
2018-06-27T23:03:46.975Z,51.70
2018-06-27T23:06:14.181Z,51.80
2018-06-27T23:08:41.587Z,52.00
2018-06-27T23:13:43.060Z,52.20
2018-06-27T23:16:10.239Z,52.20
2018-06-27T23:18:37.403Z,52.50
2018-06-27T23:21:04.584Z,52.20
2018-06-27T23:23:31.797Z,52.70
2018-06-27T23:25:58.964Z,52.70
2018-06-27T23:28:26.121Z,52.80
2018-06-27T23:30:53.283Z,52.50
2018-06-27T23:35:47.645Z,53.00
2018-06-27T23:38:14.843Z,52.70
2018-06-27T23:40:42.007Z,52.70
2018-06-27T23:43:09.204Z,53.50
2018-06-27T23:45:36.380Z,53.20
2018-06-27T23:48:03.585Z,53.20
2018-06-27T23:50:30.760Z,53.50
2018-06-27T23:52:57.940Z,53.50
2018-06-27T23:55:25.121Z,53.70
2018-06-27T23:57:52.321Z,54.20
